createdAt,value
2023-01-20T00:01:26.396Z,15.30
2023-01-20T00:03:54.711Z,15.17
2023-01-20T00:06:22.707Z,14.93
2023-01-20T00:08:53.728Z,14.43
2023-01-20T00:11:22.563Z,14.70
2023-01-20T00:13:50.041Z,14.37
2023-01-20T00:16:17.377Z,15.13
2023-01-20T00:18:44.745Z,14.87
2023-01-20T00:21:13.317Z,15.57
2023-01-20T00:23:41.773Z,15.27
2023-01-20T00:26:10.850Z,16.13
2023-01-20T00:28:38.305Z,15.77
2023-01-20T00:31:13.021Z,14.60
2023-01-20T00:33:40.377Z,15.33
2023-01-20T00:36:07.725Z,14.83
2023-01-20T00:38:35.177Z,14.37
2023-01-20T00:41:02.606Z,14.17
2023-01-20T00:43:29.917Z,14.37
2023-01-20T00:45:58.078Z,13.97
2023-01-20T00:48:25.379Z,14.50
2023-01-20T00:50:52.656Z,14.27
2023-01-20T00:53:19.932Z,13.67
2023-01-20T00:55:47.256Z,14.67
2023-01-20T00:58:14.539Z,14.40
2023-01-20T01:00:42.234Z,14.17
2023-01-20T01:03:13.765Z,14.53
2023-01-20T01:05:41.176Z,13.10
2023-01-20T01:08:08.609Z,14.73
2023-01-20T01:10:35.997Z,13.60
2023-01-20T01:13:04.781Z,15.50
2023-01-20T01:15:32.085Z,13.67
2023-01-20T01:18:01.880Z,13.40
2023-01-20T01:20:29.806Z,13.67
2023-01-20T01:22:57.201Z,13.87
2023-01-20T01:25:24.555Z,13.97
2023-01-20T01:27:52.230Z,14.03
2023-01-20T01:30:22.826Z,13.73
2023-01-20T01:32:50.135Z,13.93
2023-01-20T01:35:18.308Z,14.30
2023-01-20T01:37:45.581Z,14.33
2023-01-20T01:40:13.094Z,14.40
2023-01-20T01:42:42.677Z,14.20
2023-01-20T01:45:13.866Z,14.40
2023-01-20T01:47:47.450Z,13.10
2023-01-20T01:50:16.765Z,12.57
2023-01-20T01:52:46.262Z,13.07
2023-01-20T01:55:15.135Z,12.47
2023-01-20T01:57:42.733Z,13.50
2023-01-20T02:00:10.414Z,14.20
2023-01-20T02:02:38.709Z,13.67
2023-01-20T02:05:07.154Z,13.47
2023-01-20T02:07:34.793Z,13.50
2023-01-20T02:10:02.126Z,12.70
2023-01-20T02:12:29.964Z,14.53
2023-01-20T02:14:58.353Z,13.30
2023-01-20T02:17:37.364Z,12.57
2023-01-20T02:20:28.461Z,12.83
2023-01-20T02:23:05.336Z,12.27
2023-01-20T02:25:44.998Z,11.63
2023-01-20T02:28:35.779Z,11.87
2023-01-20T02:31:15.521Z,10.53
2023-01-20T02:33:58.198Z,11.13
2023-01-20T02:36:25.475Z,11.90
2023-01-20T02:39:02.377Z,11.00
2023-01-20T02:41:45.205Z,11.27
2023-01-20T02:44:12.439Z,11.67
2023-01-20T02:46:43.847Z,10.57
2023-01-20T02:49:15.796Z,11.07
2023-01-20T02:51:46.572Z,10.57
2023-01-20T02:54:15.887Z,10.70
2023-01-20T02:56:43.432Z,10.00
2023-01-20T02:59:12.811Z,11.10
2023-01-20T03:01:40.126Z,10.53
2023-01-20T03:04:10.257Z,10.70
2023-01-20T03:06:39.739Z,10.30
2023-01-20T03:09:10.129Z,10.57
2023-01-20T03:11:39.676Z,10.87
2023-01-20T03:14:09.174Z,10.67
2023-01-20T03:16:36.593Z,10.00
2023-01-20T03:19:04.475Z,9.73
2023-01-20T03:21:31.782Z,9.50
2023-01-20T03:24:01.156Z,9.23
2023-01-20T03:26:28.620Z,9.87
2023-01-20T03:28:56.302Z,8.13
2023-01-20T03:31:26.048Z,8.77
2023-01-20T03:33:55.061Z,8.53
2023-01-20T03:36:23.295Z,9.03
2023-01-20T03:38:51.713Z,8.20
2023-01-20T03:41:30.731Z,7.80
2023-01-20T03:44:02.902Z,8.13
2023-01-20T03:46:39.188Z,7.47
2023-01-20T03:49:06.452Z,8.00
2023-01-20T03:51:40.812Z,8.07
2023-01-20T03:54:09.399Z,7.33
2023-01-20T03:56:55.400Z,8.53
2023-01-20T03:59:23.599Z,7.73
2023-01-20T04:01:52.854Z,8.30
2023-01-20T04:04:20.591Z,8.13
2023-01-20T04:06:48.961Z,7.10
2023-01-20T04:09:24.462Z,7.47
2023-01-20T04:11:51.948Z,7.20
2023-01-20T04:14:19.555Z,7.63
2023-01-20T04:16:54.332Z,7.57
2023-01-20T04:19:21.786Z,7.70
2023-01-20T04:22:07.543Z,8.53
2023-01-20T04:24:53.205Z,12.20
2023-01-20T04:27:20.443Z,15.90
2023-01-20T04:29:47.740Z,11.40
2023-01-20T04:32:15.077Z,9.97
2023-01-20T04:34:42.426Z,10.60
2023-01-20T04:37:09.888Z,21.40
2023-01-20T04:39:37.335Z,23.47
2023-01-20T04:42:05.021Z,9.33
2023-01-20T04:44:32.285Z,9.67
2023-01-20T04:46:59.929Z,8.83
2023-01-20T04:49:27.276Z,10.67
2023-01-20T04:51:54.580Z,13.90
2023-01-20T04:54:21.847Z,11.07
2023-01-20T04:56:49.751Z,14.30
2023-01-20T04:59:17.293Z,16.60
2023-01-20T05:01:44.700Z,15.40
2023-01-20T05:04:12.136Z,13.67
2023-01-20T05:06:42.800Z,11.67
2023-01-20T05:09:15.404Z,10.63
2023-01-20T05:11:43.086Z,11.23
2023-01-20T05:14:11.921Z,11.27
2023-01-20T05:16:39.279Z,11.63
2023-01-20T05:19:06.618Z,12.87
2023-01-20T05:21:34.229Z,10.87
2023-01-20T05:24:01.517Z,16.30
2023-01-20T05:26:31.479Z,20.87
2023-01-20T05:28:58.737Z,28.73
2023-01-20T05:31:26.371Z,44.07
2023-01-20T05:33:53.857Z,35.30
2023-01-20T05:36:21.173Z,38.23
2023-01-20T05:38:48.452Z,28.67
2023-01-20T05:41:16.030Z,23.53
2023-01-20T05:43:43.554Z,14.10
2023-01-20T05:46:10.999Z,13.03
2023-01-20T05:48:38.341Z,12.97
2023-01-20T05:51:05.642Z,12.13
2023-01-20T05:53:33.119Z,14.17
2023-01-20T05:56:04.350Z,13.40
2023-01-20T05:58:31.866Z,15.97
2023-01-20T06:01:06.293Z,32.77
2023-01-20T06:03:33.714Z,35.37
2023-01-20T06:06:05.121Z,28.83
2023-01-20T06:08:32.645Z,35.53
2023-01-20T06:11:00.094Z,19.57
2023-01-20T06:13:27.599Z,25.03
2023-01-20T06:15:55.534Z,23.93
2023-01-20T06:18:23.920Z,20.50
2023-01-20T06:20:51.434Z,14.83
2023-01-20T06:23:18.967Z,13.90
2023-01-20T06:25:46.254Z,13.40
2023-01-20T06:28:13.571Z,10.87
2023-01-20T06:30:43.372Z,11.67
2023-01-20T06:33:10.973Z,11.13
2023-01-20T06:35:38.870Z,10.93
2023-01-20T06:38:06.258Z,10.97
2023-01-20T06:40:33.589Z,11.13
2023-01-20T06:43:01.041Z,16.13
2023-01-20T06:45:29.710Z,16.33
2023-01-20T06:47:57.129Z,14.63
2023-01-20T06:50:24.498Z,14.93
2023-01-20T06:52:51.691Z,17.57
2023-01-20T06:55:19.270Z,14.10
2023-01-20T06:57:46.801Z,11.60
2023-01-20T07:00:14.501Z,12.07
2023-01-20T07:02:41.810Z,11.57
2023-01-20T07:05:10.301Z,12.10
2023-01-20T07:07:38.718Z,11.67
2023-01-20T07:10:06.615Z,11.40
2023-01-20T07:12:33.879Z,11.37
2023-01-20T07:15:01.260Z,11.63
2023-01-20T07:17:28.513Z,12.23
2023-01-20T07:19:55.821Z,11.33
2023-01-20T07:22:23.252Z,11.13
2023-01-20T07:24:50.575Z,14.67
2023-01-20T07:27:17.796Z,12.00
2023-01-20T07:29:45.111Z,12.47
2023-01-20T07:32:12.485Z,12.37
2023-01-20T07:34:39.697Z,12.20
2023-01-20T07:37:07.250Z,11.27
2023-01-20T07:39:36.320Z,13.00
2023-01-20T07:42:03.816Z,15.63
2023-01-20T07:44:31.016Z,15.80
2023-01-20T07:46:58.288Z,16.60
2023-01-20T07:49:25.582Z,16.67
2023-01-20T07:51:52.899Z,17.37
2023-01-20T07:54:20.723Z,16.43
2023-01-20T07:56:47.989Z,11.33
2023-01-20T07:59:15.307Z,11.13
2023-01-20T08:01:44.621Z,18.60
2023-01-20T08:04:13.440Z,20.07
2023-01-20T08:06:40.731Z,16.20
2023-01-20T08:09:12.178Z,13.60
2023-01-20T08:11:39.611Z,20.87
2023-01-20T08:14:07.066Z,13.80
2023-01-20T08:16:34.329Z,10.47
2023-01-20T08:19:01.745Z,10.63
2023-01-20T08:21:30.838Z,10.23
2023-01-20T08:24:02.801Z,9.97
2023-01-20T08:26:30.918Z,14.00
2023-01-20T08:29:10.780Z,11.83
2023-01-20T08:31:38.684Z,9.30
2023-01-20T08:34:06.170Z,9.67
2023-01-20T08:36:35.226Z,9.07
2023-01-20T08:39:03.822Z,8.97
2023-01-20T08:41:32.616Z,8.13
2023-01-20T08:44:00.591Z,7.83
2023-01-20T08:46:29.141Z,8.93
2023-01-20T08:48:56.828Z,9.83
2023-01-20T08:51:29.351Z,10.53
2023-01-20T08:53:56.968Z,9.27
2023-01-20T08:56:24.523Z,9.63
2023-01-20T08:58:52.033Z,9.23
2023-01-20T09:01:23.625Z,10.60
2023-01-20T09:04:04.363Z,10.57
2023-01-20T09:06:38.086Z,11.60
2023-01-20T09:09:05.455Z,10.77
2023-01-20T09:11:33.183Z,10.10
2023-01-20T09:14:00.663Z,10.07
2023-01-20T09:16:27.964Z,10.17
2023-01-20T09:18:55.269Z,10.30
2023-01-20T09:21:22.944Z,10.83
2023-01-20T09:23:50.707Z,10.07
2023-01-20T09:26:34.314Z,9.50
2023-01-20T09:29:09.716Z,9.47
2023-01-20T09:31:38.730Z,8.47
2023-01-20T09:34:06.191Z,8.57
2023-01-20T09:36:33.598Z,8.37
2023-01-20T09:39:19.502Z,8.30
2023-01-20T09:42:19.355Z,8.70
2023-01-20T09:44:46.733Z,8.63
2023-01-20T09:47:20.075Z,8.67
2023-01-20T09:50:18.167Z,8.63
2023-01-20T09:53:08.102Z,8.43
2023-01-20T09:55:41.634Z,10.17
2023-01-20T09:58:08.837Z,8.53
2023-01-20T10:00:36.587Z,9.23
2023-01-20T10:03:10.684Z,8.97
2023-01-20T10:05:39.268Z,9.77
2023-01-20T10:08:14.571Z,9.40
2023-01-20T10:10:51.555Z,9.47
2023-01-20T10:13:22.160Z,10.20
2023-01-20T10:15:56.513Z,9.33
2023-01-20T10:18:30.804Z,9.87
2023-01-20T10:21:20.595Z,9.47
2023-01-20T10:23:58.379Z,9.73
2023-01-20T10:26:34.900Z,9.60
2023-01-20T10:29:03.712Z,9.80
2023-01-20T10:31:33.818Z,9.43
2023-01-20T10:34:22.502Z,9.87
2023-01-20T10:37:04.265Z,9.67
2023-01-20T10:39:36.477Z,10.23
2023-01-20T10:42:10.921Z,9.20
2023-01-20T10:44:38.316Z,8.67
2023-01-20T10:47:13.579Z,7.70
2023-01-20T10:49:59.966Z,9.17
2023-01-20T10:52:42.578Z,9.13
2023-01-20T10:55:19.268Z,9.40
2023-01-20T10:57:55.818Z,9.17
2023-01-20T11:00:25.493Z,8.37
2023-01-20T11:02:54.152Z,8.73
2023-01-20T11:05:26.969Z,6.80
2023-01-20T11:07:55.545Z,6.53
2023-01-20T11:10:30.148Z,6.83
2023-01-20T11:12:59.805Z,8.00
2023-01-20T11:15:31.775Z,7.30
2023-01-20T11:18:17.427Z,7.07
2023-01-20T11:21:04.987Z,6.90
2023-01-20T11:23:58.257Z,5.87
2023-01-20T11:26:28.009Z,6.50
2023-01-20T11:29:03.343Z,6.57
2023-01-20T11:31:50.255Z,6.07
2023-01-20T11:34:24.291Z,6.17
2023-01-20T11:36:53.186Z,6.67
2023-01-20T11:39:28.684Z,6.20
2023-01-20T11:42:14.931Z,6.57
2023-01-20T11:44:43.324Z,5.90
2023-01-20T11:47:23.121Z,7.60
2023-01-20T11:50:05.691Z,7.83
2023-01-20T11:52:33.777Z,6.80
2023-01-20T11:55:13.788Z,6.37
2023-01-20T11:57:45.170Z,6.07
2023-01-20T12:00:27.506Z,6.87
2023-01-20T12:03:01.724Z,7.10
2023-01-20T12:05:37.433Z,7.00
2023-01-20T12:08:05.284Z,5.67
2023-01-20T12:10:37.975Z,5.37
2023-01-20T12:13:16.062Z,6.13
2023-01-20T12:15:45.406Z,5.00
2023-01-20T12:18:19.250Z,5.40
2023-01-20T12:20:55.429Z,4.90
2023-01-20T12:23:34.358Z,6.50
2023-01-20T12:26:03.452Z,5.13
2023-01-20T12:28:40.028Z,4.70
2023-01-20T12:31:10.520Z,5.10
2023-01-20T12:33:37.810Z,4.70
2023-01-20T12:36:25.470Z,3.90
2023-01-20T12:39:11.842Z,4.30
2023-01-20T12:41:42.050Z,5.57
2023-01-20T12:44:12.485Z,7.80
2023-01-20T12:46:43.338Z,6.60
2023-01-20T12:49:37.353Z,6.87
2023-01-20T12:52:04.717Z,15.30
2023-01-20T12:54:47.431Z,46.70
2023-01-20T12:57:18.201Z,8.93
2023-01-20T13:00:04.625Z,9.37
2023-01-20T13:02:53.188Z,4.23
2023-01-20T13:05:33.055Z,4.00
2023-01-20T13:08:03.552Z,4.03
2023-01-20T13:10:40.093Z,3.77
2023-01-20T13:13:18.550Z,3.90
2023-01-20T13:15:58.560Z,3.53
2023-01-20T13:18:31.152Z,3.77
2023-01-20T13:20:58.692Z,4.70
2023-01-20T13:23:29.414Z,14.73
2023-01-20T13:25:58.137Z,5.10
2023-01-20T13:28:27.590Z,17.23
2023-01-20T13:30:57.438Z,4.70
2023-01-20T13:33:31.186Z,4.87
2023-01-20T13:36:00.149Z,4.70
2023-01-20T13:38:30.769Z,4.93
2023-01-20T13:41:03.272Z,4.60
2023-01-20T13:43:35.669Z,5.00
2023-01-20T13:46:06.057Z,4.43
2023-01-20T13:48:34.148Z,4.63
2023-01-20T13:51:19.577Z,3.80
2023-01-20T13:53:46.963Z,3.80
2023-01-20T13:56:27.774Z,3.10
2023-01-20T13:58:56.152Z,3.40
2023-01-20T14:01:23.600Z,4.27
2023-01-20T14:04:04.406Z,4.57
2023-01-20T14:06:34.138Z,4.60
2023-01-20T14:09:01.659Z,4.77
2023-01-20T14:11:30.243Z,4.63
2023-01-20T14:14:10.390Z,7.37
2023-01-20T14:16:39.290Z,5.30
2023-01-20T14:19:27.975Z,4.67
2023-01-20T14:21:56.563Z,4.77
2023-01-20T14:24:31.084Z,4.20
2023-01-20T14:27:13.859Z,3.70
2023-01-20T14:29:41.221Z,3.63
2023-01-20T14:32:22.451Z,3.17
2023-01-20T14:34:50.270Z,3.83
2023-01-20T14:37:31.577Z,3.97
2023-01-20T14:40:00.922Z,3.17
2023-01-20T14:42:29.729Z,3.50
2023-01-20T14:44:57.811Z,4.00
2023-01-20T14:47:26.183Z,11.63
2023-01-20T14:49:54.620Z,39.37
2023-01-20T14:52:25.304Z,16.93
2023-01-20T14:54:56.186Z,7.90
2023-01-20T14:57:43.508Z,5.10
2023-01-20T15:00:14.254Z,5.50
2023-01-20T15:02:43.126Z,6.00
2023-01-20T15:05:30.339Z,4.37
2023-01-20T15:08:15.033Z,4.07
2023-01-20T15:10:42.842Z,4.33
2023-01-20T15:13:31.224Z,3.73
2023-01-20T15:16:27.953Z,4.10
2023-01-20T15:19:17.483Z,3.60
2023-01-20T15:21:49.791Z,3.93
2023-01-20T15:24:17.304Z,4.30
2023-01-20T15:26:45.391Z,4.10
2023-01-20T15:29:32.230Z,3.90
2023-01-20T15:32:01.149Z,3.67
2023-01-20T15:34:29.296Z,3.60
2023-01-20T15:36:57.035Z,3.67
2023-01-20T15:39:30.345Z,3.80
2023-01-20T15:41:58.288Z,4.07
2023-01-20T15:44:26.637Z,4.10
2023-01-20T15:46:56.974Z,4.40
2023-01-20T15:49:25.534Z,4.40
2023-01-20T15:51:53.809Z,3.83
2023-01-20T15:54:21.289Z,3.87
2023-01-20T15:56:48.583Z,4.67
2023-01-20T15:59:17.061Z,7.90
2023-01-20T16:01:50.307Z,16.43
2023-01-20T16:04:18.001Z,18.83
2023-01-20T16:06:45.700Z,30.83
2023-01-20T16:09:19.636Z,27.97
2023-01-20T16:11:47.686Z,17.50
2023-01-20T16:14:15.156Z,22.60
2023-01-20T16:16:42.432Z,15.90
2023-01-20T16:19:16.387Z,14.00
2023-01-20T16:21:45.522Z,13.90
2023-01-20T16:24:13.456Z,17.03
2023-01-20T16:26:40.695Z,26.90
2023-01-20T16:29:10.167Z,28.63
2023-01-20T16:31:37.661Z,31.53
2023-01-20T16:34:05.336Z,29.40
2023-01-20T16:36:32.787Z,24.50
2023-01-20T16:39:00.275Z,28.73
2023-01-20T16:41:28.757Z,22.73
2023-01-20T16:43:56.647Z,24.37
2023-01-20T16:46:25.439Z,24.27
2023-01-20T16:48:59.669Z,24.30
2023-01-20T16:51:28.174Z,23.13
2023-01-20T16:53:56.114Z,22.60
2023-01-20T16:56:25.068Z,20.53
2023-01-20T16:58:53.415Z,16.47
2023-01-20T17:01:24.677Z,16.50
2023-01-20T17:03:53.145Z,16.13
2023-01-20T17:06:22.351Z,17.60
2023-01-20T17:08:51.075Z,17.00
2023-01-20T17:11:18.931Z,28.40
2023-01-20T17:13:47.072Z,28.23
2023-01-20T17:16:14.422Z,26.37
2023-01-20T17:18:45.191Z,25.90
2023-01-20T17:21:13.551Z,26.47
2023-01-20T17:23:41.305Z,19.80
2023-01-20T17:26:09.470Z,14.67
2023-01-20T17:28:36.860Z,14.13
2023-01-20T17:31:08.075Z,13.20
2023-01-20T17:33:35.454Z,15.83
2023-01-20T17:36:03.818Z,19.40
2023-01-20T17:38:33.097Z,17.40
2023-01-20T17:41:01.586Z,11.63
2023-01-20T17:43:36.336Z,15.13
2023-01-20T17:46:12.890Z,18.87
2023-01-20T17:48:40.249Z,22.37
2023-01-20T17:51:27.398Z,21.03
2023-01-20T17:53:54.775Z,30.80
2023-01-20T17:56:22.966Z,44.83
2023-01-20T17:58:50.856Z,39.37
2023-01-20T18:01:19.610Z,35.07
2023-01-20T18:03:47.951Z,13.43
2023-01-20T18:06:16.082Z,12.00
2023-01-20T18:08:43.644Z,8.17
2023-01-20T18:11:19.560Z,7.30
2023-01-20T18:13:47.287Z,7.87
2023-01-20T18:16:15.944Z,7.30
2023-01-20T18:18:44.227Z,8.30
2023-01-20T18:21:16.344Z,9.07
2023-01-20T18:23:44.363Z,7.97
2023-01-20T18:26:14.099Z,5.90
2023-01-20T18:28:41.759Z,6.53
2023-01-20T18:31:10.634Z,8.50
2023-01-20T18:33:45.058Z,8.40
2023-01-20T18:36:15.027Z,8.90
2023-01-20T18:38:45.298Z,6.57
2023-01-20T18:41:14.270Z,9.00
2023-01-20T18:43:41.970Z,9.43
2023-01-20T18:46:10.279Z,8.63
2023-01-20T18:48:41.528Z,8.63
2023-01-20T18:51:14.983Z,9.73
2023-01-20T18:53:43.558Z,11.43
2023-01-20T18:56:12.484Z,13.73
2023-01-20T18:58:43.035Z,14.77
2023-01-20T19:01:12.006Z,18.03
2023-01-20T19:03:40.255Z,15.90
2023-01-20T19:06:12.051Z,14.60
2023-01-20T19:08:39.951Z,16.13
2023-01-20T19:11:13.028Z,14.50
2023-01-20T19:13:41.236Z,13.97
2023-01-20T19:16:10.631Z,16.70
2023-01-20T19:18:38.364Z,18.50
2023-01-20T19:21:06.664Z,22.37
2023-01-20T19:23:34.451Z,24.80
2023-01-20T19:26:06.446Z,27.67
2023-01-20T19:28:34.302Z,21.03
2023-01-20T19:31:05.878Z,26.37
2023-01-20T19:33:33.965Z,24.50
2023-01-20T19:36:02.175Z,17.20
2023-01-20T19:38:30.047Z,20.30
2023-01-20T19:41:04.306Z,24.40
2023-01-20T19:43:31.648Z,22.30
2023-01-20T19:46:03.048Z,18.17
2023-01-20T19:48:31.220Z,18.63
2023-01-20T19:51:08.857Z,18.23
2023-01-20T19:53:36.324Z,12.23
2023-01-20T19:56:08.295Z,9.83
2023-01-20T19:58:36.572Z,9.27
2023-01-20T20:01:17.558Z,8.80
2023-01-20T20:03:45.252Z,7.57
2023-01-20T20:06:24.700Z,7.50
2023-01-20T20:08:52.397Z,8.73
2023-01-20T20:11:21.080Z,8.80
2023-01-20T20:13:48.525Z,7.73
2023-01-20T20:16:15.999Z,6.43
2023-01-20T20:18:43.359Z,7.20
2023-01-20T20:21:10.696Z,9.50
2023-01-20T20:23:37.989Z,11.10
2023-01-20T20:26:05.243Z,12.30
2023-01-20T20:28:32.675Z,10.90
2023-01-20T20:31:05.091Z,10.87
2023-01-20T20:33:32.658Z,12.43
2023-01-20T20:35:59.957Z,10.20
2023-01-20T20:38:30.495Z,6.70
2023-01-20T20:40:58.335Z,5.97
2023-01-20T20:43:26.326Z,6.53
2023-01-20T20:45:53.732Z,5.50
2023-01-20T20:48:21.054Z,5.50
2023-01-20T20:50:48.433Z,6.23
2023-01-20T20:53:18.937Z,6.90
2023-01-20T20:55:46.207Z,8.80
2023-01-20T20:58:13.557Z,8.77
2023-01-20T21:00:41.016Z,16.93
2023-01-20T21:03:08.320Z,23.90
2023-01-20T21:05:35.877Z,8.90
2023-01-20T21:08:06.063Z,6.43
2023-01-20T21:10:33.365Z,6.40
2023-01-20T21:13:00.690Z,5.13
2023-01-20T21:15:28.009Z,5.03
2023-01-20T21:17:55.281Z,7.40
2023-01-20T21:20:22.549Z,9.13
2023-01-20T21:22:49.845Z,9.47
2023-01-20T21:25:17.732Z,16.13
2023-01-20T21:27:45.172Z,21.87
2023-01-20T21:30:12.782Z,20.77
2023-01-20T21:32:40.956Z,22.23
2023-01-20T21:35:09.363Z,23.20
2023-01-20T21:37:37.291Z,21.73
2023-01-20T21:40:05.919Z,22.30
2023-01-20T21:42:33.435Z,14.67
2023-01-20T21:45:00.666Z,12.10
2023-01-20T21:47:28.172Z,13.30
2023-01-20T21:50:15.489Z,10.90
2023-01-20T21:52:43.553Z,12.27
2023-01-20T21:55:15.821Z,12.87
2023-01-20T21:57:43.317Z,8.80
2023-01-20T22:00:11.308Z,7.73
2023-01-20T22:02:39.695Z,8.00
2023-01-20T22:05:07.129Z,9.43
2023-01-20T22:07:35.400Z,9.10
2023-01-20T22:10:02.861Z,8.63
2023-01-20T22:12:33.996Z,9.13
2023-01-20T22:15:01.862Z,9.17
2023-01-20T22:17:29.274Z,10.13
2023-01-20T22:19:56.592Z,12.20
2023-01-20T22:22:24.057Z,10.53
2023-01-20T22:24:51.928Z,10.23
2023-01-20T22:27:19.408Z,13.77
2023-01-20T22:29:47.181Z,14.70
2023-01-20T22:32:14.547Z,14.03
2023-01-20T22:34:41.808Z,14.63
2023-01-20T22:37:09.279Z,14.13
2023-01-20T22:39:36.426Z,11.63
2023-01-20T22:42:04.016Z,11.90
2023-01-20T22:44:31.192Z,8.40
2023-01-20T22:46:58.427Z,6.47
2023-01-20T22:49:25.676Z,7.30
2023-01-20T22:51:55.144Z,7.33
2023-01-20T22:54:22.248Z,6.27
2023-01-20T22:56:49.476Z,7.57
2023-01-20T22:59:16.746Z,10.63
2023-01-20T23:01:44.067Z,11.20
2023-01-20T23:04:11.311Z,10.77
2023-01-20T23:06:40.001Z,8.93
2023-01-20T23:09:08.754Z,7.23
2023-01-20T23:11:38.450Z,7.13
2023-01-20T23:14:05.816Z,7.40
2023-01-20T23:16:32.959Z,7.47
2023-01-20T23:19:00.165Z,7.43
2023-01-20T23:21:27.404Z,8.13
2023-01-20T23:23:55.398Z,7.50
2023-01-20T23:26:27.127Z,7.93
2023-01-20T23:28:55.457Z,6.60
2023-01-20T23:31:23.748Z,6.27
2023-01-20T23:33:51.568Z,7.93
2023-01-20T23:36:21.580Z,10.57
2023-01-20T23:38:49.142Z,12.63
2023-01-20T23:41:16.638Z,17.27
2023-01-20T23:43:43.958Z,16.67
2023-01-20T23:46:11.293Z,21.43
2023-01-20T23:48:38.781Z,19.40
2023-01-20T23:51:06.471Z,18.20
2023-01-20T23:53:34.510Z,16.47
2023-01-20T23:56:02.371Z,17.67
2023-01-20T23:58:29.605Z,17.90
